createdAt,value
2022-12-13T00:00:18.267Z,1.08
2022-12-13T00:03:08.241Z,1.07
2022-12-13T00:05:42.562Z,1.05
2022-12-13T00:08:10.267Z,1.01
2022-12-13T00:10:38.383Z,1.00
2022-12-13T00:13:06.047Z,1.00
2022-12-13T00:15:34.060Z,0.97
2022-12-13T00:18:01.670Z,0.91
2022-12-13T00:20:29.604Z,0.96
2022-12-13T00:22:57.585Z,0.98
2022-12-13T00:25:25.874Z,0.98
2022-12-13T00:27:53.557Z,0.97
2022-12-13T00:30:21.508Z,0.98
2022-12-13T00:32:49.173Z,0.99
2022-12-13T00:35:17.293Z,0.97
2022-12-13T00:37:45.203Z,0.90
2022-12-13T00:40:13.589Z,0.90
2022-12-13T00:42:41.397Z,0.86
2022-12-13T00:45:10.126Z,0.88
2022-12-13T00:47:38.154Z,0.84
2022-12-13T00:50:07.297Z,0.81
2022-12-13T00:52:35.582Z,0.83
2022-12-13T00:55:04.109Z,0.82
2022-12-13T00:57:33.787Z,0.86
2022-12-13T01:00:01.739Z,0.89
2022-12-13T01:02:29.302Z,0.85
2022-12-13T01:04:58.121Z,0.88
2022-12-13T01:07:28.485Z,0.96
2022-12-13T01:10:00.593Z,0.93
2022-12-13T01:12:28.226Z,0.87
2022-12-13T01:14:56.341Z,0.85
2022-12-13T01:17:25.125Z,0.81
2022-12-13T01:19:52.997Z,0.77
2022-12-13T01:22:20.726Z,0.81
2022-12-13T01:24:49.028Z,0.84
2022-12-13T01:27:17.049Z,0.85
2022-12-13T01:29:44.957Z,0.83
2022-12-13T01:32:12.530Z,0.80
2022-12-13T01:34:40.444Z,0.72
2022-12-13T01:37:07.943Z,0.73
2022-12-13T01:39:38.018Z,0.66
2022-12-13T01:42:06.207Z,0.67
2022-12-13T01:45:30.962Z,0.64
2022-12-13T01:48:05.552Z,0.62
2022-12-13T01:50:41.587Z,0.66
2022-12-13T01:53:15.720Z,0.71
2022-12-13T01:55:47.421Z,0.65
2022-12-13T01:58:16.120Z,0.63
2022-12-13T02:00:45.036Z,0.61
2022-12-13T02:03:20.810Z,0.56
2022-12-13T02:06:16.533Z,0.48
2022-12-13T02:08:47.073Z,0.45
2022-12-13T02:11:15.810Z,0.45
2022-12-13T02:13:43.472Z,0.47
2022-12-13T02:16:21.978Z,0.48
2022-12-13T02:19:08.507Z,0.58
2022-12-13T02:22:04.093Z,0.60
2022-12-13T02:24:58.850Z,0.55
2022-12-13T02:28:30.630Z,0.56
2022-12-13T02:31:33.069Z,0.53
2022-12-13T02:34:09.029Z,0.50
2022-12-13T02:36:58.167Z,0.50
2022-12-13T02:39:44.149Z,0.46
2022-12-13T02:42:37.463Z,0.51
2022-12-13T02:45:20.783Z,0.52
2022-12-13T02:47:52.639Z,0.60
2022-12-13T02:50:22.242Z,0.65
2022-12-13T02:52:52.414Z,0.70
2022-12-13T02:55:23.932Z,0.87
2022-12-13T02:57:54.342Z,0.92
2022-12-13T03:00:38.033Z,0.91
2022-12-13T03:03:22.051Z,0.92
2022-12-13T03:06:34.364Z,0.90
2022-12-13T03:09:28.747Z,0.90
2022-12-13T03:12:46.310Z,0.91
2022-12-13T03:15:27.547Z,0.92
2022-12-13T03:18:15.747Z,0.92
2022-12-13T03:20:54.956Z,0.91
2022-12-13T03:23:23.622Z,0.86
2022-12-13T03:25:59.965Z,0.89
2022-12-13T03:28:28.004Z,0.93
2022-12-13T03:30:55.674Z,0.96
2022-12-13T03:33:23.656Z,1.00
2022-12-13T03:35:51.593Z,1.04
2022-12-13T03:38:21.911Z,1.02
2022-12-13T03:41:12.071Z,1.06
2022-12-13T03:43:40.735Z,1.08
2022-12-13T03:46:09.618Z,1.11
2022-12-13T03:48:37.679Z,1.12
2022-12-13T03:51:06.112Z,1.16
2022-12-13T03:53:34.667Z,1.14
2022-12-13T03:56:07.034Z,1.16
2022-12-13T03:58:37.983Z,1.15
2022-12-13T04:01:14.710Z,1.11
2022-12-13T04:03:44.863Z,1.14
2022-12-13T04:06:22.725Z,1.18
2022-12-13T04:08:52.764Z,1.12
2022-12-13T04:11:42.725Z,1.11
2022-12-13T04:14:22.018Z,1.12
2022-12-13T04:16:52.512Z,1.10
2022-12-13T04:19:23.005Z,1.12
2022-12-13T04:21:55.232Z,1.10
2022-12-13T04:24:31.338Z,1.11
2022-12-13T04:27:01.642Z,1.12
2022-12-13T04:29:34.349Z,1.02
2022-12-13T04:32:26.428Z,1.01
2022-12-13T04:35:12.380Z,0.98
2022-12-13T04:37:39.984Z,0.90
2022-12-13T04:40:12.381Z,0.88
2022-12-13T04:42:39.971Z,0.86
2022-12-13T04:45:08.780Z,0.84
2022-12-13T04:47:36.234Z,0.80
2022-12-13T04:50:04.837Z,0.82
2022-12-13T04:52:32.462Z,0.80
2022-12-13T04:55:00.333Z,0.77
2022-12-13T04:57:27.985Z,0.76
2022-12-13T04:59:55.924Z,0.71
2022-12-13T05:02:24.399Z,0.70
2022-12-13T05:04:53.875Z,0.69
2022-12-13T05:07:24.055Z,0.71
2022-12-13T05:09:52.056Z,0.74
2022-12-13T05:12:22.284Z,0.71
2022-12-13T05:14:52.499Z,0.74
2022-12-13T05:17:20.534Z,0.72
2022-12-13T05:19:48.423Z,0.73
2022-12-13T05:22:20.255Z,0.71
2022-12-13T05:24:49.591Z,0.76
2022-12-13T05:27:24.994Z,0.76
2022-12-13T05:30:03.896Z,0.68
2022-12-13T05:32:44.144Z,0.66
2022-12-13T05:35:22.297Z,0.68
2022-12-13T05:37:55.467Z,0.66
2022-12-13T05:40:24.861Z,0.64
2022-12-13T05:43:01.240Z,0.64
2022-12-13T05:45:32.045Z,0.65
2022-12-13T05:48:00.602Z,0.63
2022-12-13T05:50:28.663Z,0.70
2022-12-13T05:52:56.251Z,0.72
2022-12-13T05:55:24.161Z,0.74
2022-12-13T05:57:51.700Z,0.74
2022-12-13T06:00:28.616Z,0.75
2022-12-13T06:03:00.962Z,0.73
2022-12-13T06:05:30.873Z,0.71
2022-12-13T06:07:59.064Z,0.68
2022-12-13T06:10:34.098Z,0.67
2022-12-13T06:13:21.776Z,0.64
2022-12-13T06:16:01.699Z,0.59
2022-12-13T06:18:32.902Z,0.58
2022-12-13T06:21:05.430Z,0.55
2022-12-13T06:23:35.351Z,0.54
2022-12-13T06:26:07.353Z,0.54
2022-12-13T06:28:35.304Z,0.52
2022-12-13T06:31:05.220Z,0.51
2022-12-13T06:33:36.705Z,0.51
2022-12-13T06:36:05.610Z,0.51
2022-12-13T06:38:33.197Z,0.51
2022-12-13T06:41:13.293Z,0.52
2022-12-13T06:43:45.916Z,0.50
2022-12-13T06:46:15.745Z,0.51
2022-12-13T06:48:43.307Z,0.53
2022-12-13T06:51:11.788Z,0.51
2022-12-13T06:53:40.714Z,0.56
2022-12-13T06:56:12.545Z,0.60
2022-12-13T06:58:42.086Z,0.60
2022-12-13T07:01:24.552Z,0.59
2022-12-13T07:03:56.220Z,0.60
2022-12-13T07:06:26.007Z,0.63
2022-12-13T07:08:56.045Z,0.65
2022-12-13T07:11:28.677Z,0.65
2022-12-13T07:13:56.918Z,0.68
2022-12-13T07:16:25.880Z,0.71
2022-12-13T07:19:02.845Z,0.77
2022-12-13T07:21:31.484Z,0.82
2022-12-13T07:23:59.477Z,0.89
2022-12-13T07:26:27.507Z,0.96
2022-12-13T07:28:55.677Z,1.04
2022-12-13T07:31:25.448Z,1.11
2022-12-13T07:33:53.173Z,1.16
2022-12-13T07:36:23.048Z,1.22
2022-12-13T07:38:58.565Z,1.27
2022-12-13T07:41:27.877Z,1.32
2022-12-13T07:43:56.577Z,1.39
2022-12-13T07:46:33.373Z,1.45
2022-12-13T07:49:03.429Z,1.48
2022-12-13T07:51:34.933Z,1.54
2022-12-13T07:54:06.728Z,1.60
2022-12-13T07:56:36.169Z,1.65
2022-12-13T07:59:04.400Z,1.70
2022-12-13T08:01:36.807Z,1.71
2022-12-13T08:04:05.119Z,1.73
2022-12-13T08:06:37.824Z,1.72
2022-12-13T08:09:06.126Z,1.73
2022-12-13T08:11:34.605Z,1.75
2022-12-13T08:14:02.136Z,1.74
2022-12-13T08:16:30.666Z,1.76
2022-12-13T08:19:03.216Z,1.76
2022-12-13T08:21:58.329Z,1.78
2022-12-13T08:24:28.782Z,1.79
2022-12-13T08:27:01.401Z,1.80
2022-12-13T08:29:33.891Z,1.87
2022-12-13T08:32:12.065Z,1.92
2022-12-13T08:34:41.570Z,1.98
2022-12-13T08:37:09.518Z,2.00
2022-12-13T08:39:38.989Z,2.07
2022-12-13T08:42:18.878Z,2.17
2022-12-13T08:44:52.981Z,2.22
2022-12-13T08:47:26.782Z,2.30
2022-12-13T08:50:02.414Z,2.35
2022-12-13T08:52:40.244Z,2.39
2022-12-13T08:55:14.123Z,2.45
2022-12-13T08:57:43.802Z,2.50
2022-12-13T09:00:16.983Z,2.53
2022-12-13T09:02:45.233Z,2.56
2022-12-13T09:05:32.389Z,2.59
2022-12-13T09:08:23.602Z,2.62
2022-12-13T09:11:00.630Z,2.62
2022-12-13T09:13:35.171Z,2.67
2022-12-13T09:16:23.392Z,2.73
2022-12-13T09:18:55.978Z,2.76
2022-12-13T09:21:31.757Z,2.81
2022-12-13T09:24:01.768Z,2.87
2022-12-13T09:26:38.383Z,2.91
2022-12-13T09:29:11.698Z,2.96
2022-12-13T09:31:40.830Z,3.00
2022-12-13T09:34:10.405Z,3.09
2022-12-13T09:36:38.635Z,3.10
2022-12-13T09:39:06.526Z,3.17
2022-12-13T09:41:53.033Z,3.27
2022-12-13T09:44:42.721Z,3.34
2022-12-13T09:47:28.545Z,3.38
2022-12-13T09:50:37.575Z,3.41
2022-12-13T09:53:21.122Z,3.46
2022-12-13T09:55:52.490Z,3.51
2022-12-13T09:58:38.199Z,3.54
2022-12-13T10:01:06.764Z,3.56
2022-12-13T10:03:34.745Z,3.64
2022-12-13T10:06:23.521Z,3.71
2022-12-13T10:08:59.237Z,3.79
2022-12-13T10:11:31.289Z,3.83
2022-12-13T10:14:31.487Z,3.88
2022-12-13T10:17:04.169Z,3.92
2022-12-13T10:19:44.687Z,3.97
2022-12-13T10:22:16.525Z,4.00
2022-12-13T10:25:05.994Z,4.04
2022-12-13T10:27:40.773Z,4.10
2022-12-13T10:30:13.415Z,4.19
2022-12-13T10:33:01.351Z,4.25
2022-12-13T10:35:35.569Z,4.29
2022-12-13T10:38:31.742Z,4.40
2022-12-13T10:41:01.070Z,4.45
2022-12-13T10:43:33.345Z,4.46
2022-12-13T10:46:04.082Z,4.48
2022-12-13T10:48:47.924Z,4.57
2022-12-13T10:51:20.228Z,4.70
2022-12-13T10:53:51.329Z,4.80
2022-12-13T10:56:23.083Z,4.92
2022-12-13T10:59:21.150Z,5.06
2022-12-13T11:01:48.826Z,5.10
2022-12-13T11:04:34.595Z,5.14
2022-12-13T11:07:25.600Z,5.15
2022-12-13T11:09:53.697Z,5.15
2022-12-13T11:12:26.013Z,5.12
2022-12-13T11:15:04.383Z,5.05
2022-12-13T11:18:02.603Z,5.05
2022-12-13T11:20:40.052Z,5.11
2022-12-13T11:23:26.121Z,5.22
2022-12-13T11:26:06.632Z,5.38
2022-12-13T11:29:15.276Z,5.58
2022-12-13T11:32:32.053Z,5.80
2022-12-13T11:35:41.805Z,6.04
2022-12-13T11:38:53.976Z,6.31
2022-12-13T11:41:33.232Z,6.50
2022-12-13T11:44:26.324Z,6.67
2022-12-13T11:47:00.915Z,6.79
2022-12-13T11:49:45.791Z,6.89
2022-12-13T11:52:30.202Z,7.02
2022-12-13T11:55:24.353Z,7.26
2022-12-13T11:58:54.013Z,7.48
2022-12-13T12:01:17.241Z,7.70
2022-12-13T12:04:18.387Z,7.92
2022-12-13T12:07:31.091Z,8.05
2022-12-13T12:10:30.789Z,8.17
2022-12-13T12:13:13.807Z,8.21
2022-12-13T12:16:46.323Z,8.28
2022-12-13T12:19:18.761Z,8.34
2022-12-13T12:22:48.991Z,8.34
2022-12-13T12:25:51.813Z,8.23
2022-12-13T12:28:57.095Z,8.04
2022-12-13T12:31:51.168Z,7.87
2022-12-13T12:34:45.843Z,7.63
2022-12-13T12:37:45.764Z,7.42
2022-12-13T12:40:24.928Z,7.18
2022-12-13T12:43:15.931Z,6.95
2022-12-13T12:45:57.940Z,6.71
2022-12-13T12:49:03.031Z,6.46
2022-12-13T12:51:52.315Z,6.14
2022-12-13T12:54:32.735Z,5.90
2022-12-13T12:57:31.161Z,5.72
2022-12-13T13:00:17.426Z,5.61
2022-12-13T13:03:01.812Z,5.56
2022-12-13T13:05:32.941Z,5.50
2022-12-13T13:08:17.512Z,5.49
2022-12-13T13:10:49.863Z,5.46
2022-12-13T13:14:03.898Z,5.37
2022-12-13T13:16:38.013Z,5.34
2022-12-13T13:19:12.391Z,5.31
2022-12-13T13:21:52.409Z,5.29
2022-12-13T13:24:23.228Z,5.24
2022-12-13T13:26:58.175Z,5.19
2022-12-13T13:29:28.646Z,5.12
2022-12-13T13:32:28.425Z,5.01
2022-12-13T13:35:33.877Z,4.84
2022-12-13T13:38:27.681Z,4.76
2022-12-13T13:40:55.431Z,4.72
2022-12-13T13:43:32.757Z,4.72
2022-12-13T13:46:10.945Z,4.72
2022-12-13T13:48:41.691Z,4.70
2022-12-13T13:51:20.789Z,4.70
2022-12-13T13:54:47.446Z,4.66
2022-12-13T13:58:07.637Z,4.58
2022-12-13T14:01:33.793Z,4.56
2022-12-13T14:04:51.968Z,4.52
2022-12-13T14:07:38.073Z,4.46
2022-12-13T14:10:35.253Z,4.40
2022-12-13T14:13:44.957Z,4.42
2022-12-13T14:16:49.540Z,4.45
2022-12-13T14:19:33.632Z,4.46
2022-12-13T14:22:12.814Z,4.42
2022-12-13T14:24:58.801Z,4.42
2022-12-13T14:27:26.269Z,4.39
2022-12-13T14:29:58.596Z,4.41
2022-12-13T14:32:37.039Z,4.41
2022-12-13T14:35:25.414Z,4.38
2022-12-13T14:38:20.466Z,4.34
2022-12-13T14:40:52.324Z,4.32
2022-12-13T14:43:38.290Z,4.30
2022-12-13T14:46:08.195Z,4.27
2022-12-13T14:48:55.992Z,4.26
2022-12-13T14:51:38.126Z,4.17
2022-12-13T14:54:08.484Z,4.10
2022-12-13T14:56:56.610Z,4.08
2022-12-13T14:59:24.658Z,4.07
2022-12-13T15:02:06.732Z,4.06
2022-12-13T15:04:37.932Z,4.06
2022-12-13T15:07:25.619Z,4.02
2022-12-13T15:10:02.019Z,4.01
2022-12-13T15:12:32.182Z,3.94
2022-12-13T15:15:04.543Z,3.88
2022-12-13T15:17:38.852Z,3.83
2022-12-13T15:20:31.113Z,3.82
2022-12-13T15:23:22.437Z,3.78
2022-12-13T15:26:28.812Z,3.74
2022-12-13T15:29:10.312Z,3.68
2022-12-13T15:31:40.752Z,3.66
2022-12-13T15:34:35.059Z,3.68
2022-12-13T15:37:28.546Z,3.69
2022-12-13T15:40:09.805Z,3.68
2022-12-13T15:42:44.150Z,3.71
2022-12-13T15:45:30.464Z,3.72
2022-12-13T15:48:02.455Z,3.70
2022-12-13T15:50:45.416Z,3.71
2022-12-13T15:53:27.892Z,3.72
2022-12-13T15:55:56.328Z,3.72
2022-12-13T15:58:42.605Z,3.73
2022-12-13T16:01:36.150Z,3.71
2022-12-13T16:04:06.302Z,3.70
2022-12-13T16:06:34.436Z,3.68
2022-12-13T16:09:06.963Z,3.69
2022-12-13T16:11:53.351Z,3.69
2022-12-13T16:14:49.657Z,3.67
2022-12-13T16:17:29.753Z,3.61
2022-12-13T16:20:09.197Z,3.60
2022-12-13T16:22:37.611Z,3.59
2022-12-13T16:25:05.735Z,3.61
2022-12-13T16:27:33.684Z,3.59
2022-12-13T16:30:01.246Z,3.57
2022-12-13T16:32:29.773Z,3.55
2022-12-13T16:34:57.395Z,3.60
2022-12-13T16:37:28.236Z,3.61
2022-12-13T16:39:57.475Z,3.63
2022-12-13T16:42:26.950Z,3.63
2022-12-13T16:45:40.511Z,3.62
2022-12-13T16:47:49.526Z,3.63
2022-12-13T16:50:20.808Z,3.64
2022-12-13T16:52:49.508Z,3.60
2022-12-13T16:55:17.518Z,3.61
2022-12-13T16:58:00.189Z,3.62
2022-12-13T17:00:29.724Z,3.66
2022-12-13T17:03:00.027Z,3.66
2022-12-13T17:05:29.599Z,3.69
2022-12-13T17:07:57.651Z,3.69
2022-12-13T17:10:26.205Z,3.66
2022-12-13T17:12:54.996Z,3.57
2022-12-13T17:15:22.609Z,3.51
2022-12-13T17:17:50.647Z,3.47
2022-12-13T17:20:18.944Z,3.42
2022-12-13T17:22:46.988Z,3.43
2022-12-13T17:25:14.797Z,3.45
2022-12-13T17:27:43.936Z,3.49
2022-12-13T17:30:20.589Z,3.52
2022-12-13T17:32:48.575Z,3.53
2022-12-13T17:35:18.551Z,3.53
2022-12-13T17:37:46.824Z,3.53
2022-12-13T17:40:14.336Z,3.54
2022-12-13T17:42:42.263Z,3.56
2022-12-13T17:45:10.357Z,3.54
2022-12-13T17:47:39.801Z,3.53
2022-12-13T17:50:09.290Z,3.52
2022-12-13T17:52:39.347Z,3.52
2022-12-13T17:55:11.216Z,3.54
2022-12-13T17:57:42.804Z,3.59
2022-12-13T18:00:11.711Z,3.60
2022-12-13T18:02:42.646Z,3.61
2022-12-13T18:05:26.263Z,3.61
2022-12-13T18:07:54.306Z,3.63
2022-12-13T18:10:26.354Z,3.61
2022-12-13T18:12:58.520Z,3.56
2022-12-13T18:15:26.473Z,3.52
2022-12-13T18:18:13.693Z,3.43
2022-12-13T18:20:42.499Z,3.39
2022-12-13T18:23:10.642Z,3.40
2022-12-13T18:25:38.853Z,3.43
2022-12-13T18:28:12.005Z,3.45
2022-12-13T18:30:39.603Z,3.49
2022-12-13T18:33:07.610Z,3.50
2022-12-13T18:35:35.209Z,3.51
2022-12-13T18:38:03.110Z,3.49
2022-12-13T18:40:31.752Z,3.48
2022-12-13T18:42:59.602Z,3.49
2022-12-13T18:45:27.689Z,3.45
2022-12-13T18:47:55.526Z,3.45
2022-12-13T18:50:23.346Z,3.41
2022-12-13T18:52:51.345Z,3.40
2022-12-13T18:55:19.048Z,3.43
2022-12-13T18:57:50.379Z,3.43
2022-12-13T19:00:20.867Z,3.46
2022-12-13T19:02:49.335Z,3.41
2022-12-13T19:05:17.172Z,3.44
2022-12-13T19:07:45.302Z,3.41
2022-12-13T19:10:13.056Z,3.40
2022-12-13T19:12:40.928Z,3.39
2022-12-13T19:15:08.949Z,3.33
2022-12-13T19:17:37.033Z,3.33
2022-12-13T19:20:05.585Z,3.33
2022-12-13T19:22:34.203Z,3.32
2022-12-13T19:25:01.854Z,3.31
2022-12-13T19:27:30.167Z,3.32
2022-12-13T19:29:57.712Z,3.33
2022-12-13T19:32:25.932Z,3.33
2022-12-13T19:34:54.154Z,3.36
2022-12-13T19:37:22.223Z,3.39
2022-12-13T19:39:49.808Z,3.33
2022-12-13T19:42:17.778Z,3.35
2022-12-13T19:44:45.316Z,3.37
2022-12-13T19:47:31.651Z,3.37
2022-12-13T19:49:59.270Z,3.33
2022-12-13T19:52:27.809Z,3.33
2022-12-13T19:54:55.988Z,3.33
2022-12-13T19:57:24.094Z,3.32
2022-12-13T19:59:51.778Z,3.30
2022-12-13T20:02:20.056Z,3.32
2022-12-13T20:04:49.466Z,3.33
2022-12-13T20:07:17.458Z,3.33
2022-12-13T20:09:45.126Z,3.30
2022-12-13T20:12:13.009Z,3.31
2022-12-13T20:14:40.557Z,3.32
2022-12-13T20:17:08.371Z,3.34
2022-12-13T20:19:36.115Z,3.33
2022-12-13T20:22:04.006Z,3.34
2022-12-13T20:24:31.774Z,3.30
2022-12-13T20:27:00.082Z,3.28
2022-12-13T20:29:27.924Z,3.23
2022-12-13T20:31:57.134Z,3.23
2022-12-13T20:34:25.104Z,3.22
2022-12-13T20:36:53.337Z,3.17
2022-12-13T20:39:21.889Z,3.17
2022-12-13T20:41:50.017Z,3.18
2022-12-13T20:44:17.698Z,3.23
2022-12-13T20:46:45.674Z,3.22
2022-12-13T20:49:13.462Z,3.25
2022-12-13T20:51:41.805Z,3.26
2022-12-13T20:54:09.771Z,3.32
2022-12-13T20:56:39.129Z,3.35
2022-12-13T20:59:11.286Z,3.34
2022-12-13T21:01:41.635Z,3.31
2022-12-13T21:04:10.943Z,3.32
2022-12-13T21:06:41.663Z,3.28
2022-12-13T21:09:11.535Z,3.23
2022-12-13T21:11:43.549Z,3.23
2022-12-13T21:14:22.399Z,3.19
2022-12-13T21:16:57.010Z,3.19
2022-12-13T21:19:38.948Z,3.15
2022-12-13T21:22:08.241Z,3.15
2022-12-13T21:24:35.833Z,3.11
2022-12-13T21:27:04.634Z,3.06
2022-12-13T21:29:32.400Z,3.08
2022-12-13T21:32:00.387Z,3.11
2022-12-13T21:34:28.103Z,3.15
2022-12-13T21:36:56.007Z,3.16
2022-12-13T21:39:31.070Z,3.21
2022-12-13T21:41:59.310Z,3.28
2022-12-13T21:44:27.272Z,3.28
2022-12-13T21:47:12.022Z,3.30
2022-12-13T21:49:41.064Z,3.34
2022-12-13T21:52:09.069Z,3.38
2022-12-13T21:54:36.713Z,3.39
2022-12-13T21:57:32.579Z,3.39
2022-12-13T22:00:12.586Z,3.37
2022-12-13T22:02:47.875Z,3.43
2022-12-13T22:05:19.840Z,3.43
2022-12-13T22:07:49.825Z,3.41
2022-12-13T22:10:17.610Z,3.42
2022-12-13T22:12:45.562Z,3.37
2022-12-13T22:15:27.812Z,3.35
2022-12-13T22:18:04.083Z,3.34
2022-12-13T22:20:39.787Z,3.34
2022-12-13T22:23:11.859Z,3.36
2022-12-13T22:26:05.644Z,3.39
2022-12-13T22:28:57.668Z,3.38
2022-12-13T22:31:33.085Z,3.37
2022-12-13T22:34:07.819Z,3.37
2022-12-13T22:36:41.435Z,3.38
2022-12-13T22:39:22.814Z,3.36
2022-12-13T22:41:55.050Z,3.34
2022-12-13T22:44:29.427Z,3.35
2022-12-13T22:46:59.573Z,3.37
2022-12-13T22:49:36.742Z,3.39
2022-12-13T22:52:10.800Z,3.43
2022-12-13T22:54:45.364Z,3.45
2022-12-13T22:57:17.757Z,3.45
2022-12-13T22:59:52.126Z,3.45
2022-12-13T23:02:25.542Z,3.48
2022-12-13T23:05:02.253Z,3.48
2022-12-13T23:07:39.687Z,3.48
2022-12-13T23:10:32.022Z,3.50
2022-12-13T23:13:04.067Z,3.45
2022-12-13T23:15:36.501Z,3.42
2022-12-13T23:18:04.268Z,3.41
2022-12-13T23:20:34.546Z,3.35
2022-12-13T23:23:02.195Z,3.32
2022-12-13T23:25:30.174Z,3.33
2022-12-13T23:27:57.725Z,3.31
2022-12-13T23:30:26.014Z,3.32
2022-12-13T23:32:55.343Z,3.33
2022-12-13T23:35:23.262Z,3.35
2022-12-13T23:37:50.989Z,3.35
2022-12-13T23:40:19.111Z,3.41
2022-12-13T23:42:46.715Z,3.42
2022-12-13T23:45:21.282Z,3.46
2022-12-13T23:47:50.656Z,3.48
2022-12-13T23:50:26.260Z,3.49
2022-12-13T23:52:56.833Z,3.50
2022-12-13T23:55:30.646Z,3.48
2022-12-13T23:58:01.986Z,3.47
